Time;durP1;ratioP1;P1;durP2;ratioP2;P2;SDS_P1;SDS_P2;PMS_P1;PMS_P2;Temp;Humidity;BMP_temperature;BMP_pressure;BME280_temperature;BME280_humidity;BME280_pressure;Samples;Min_cycle;Max_cycle;Signal;HPM_P1;HPM_P2
2022/02/08 00:00:03;;;;;;;;;2.00;2.00;;;;;;;;2;261073935;261073935;-86
2022/02/08 00:08:18;;;;;;;;;3.00;3.00;;;;;;;;2;261075214;261075214;-86
2022/02/08 00:17:19;;;;;;;;;21.50;6.50;;;;;;;;2;261066584;261066584;-86
2022/02/08 00:25:36;;;;;;;;;7.00;7.00;;;;;;;;2;261075569;261075569;-86
2022/02/08 00:34:39;;;;;;;;;7.50;7.50;;;;;;;;2;261076369;261076369;-86
2022/02/08 00:42:58;;;;;;;;;3.00;3.00;;;;;;;;2;261077441;261077441;-86
2022/02/08 00:52:06;;;;;;;;;4.50;4.50;;;;;;;;2;261076410;261076410;-86
2022/02/08 01:00:22;;;;;;;;;7.50;7.50;;;;;;;;2;261074590;261074590;-86
2022/02/08 01:09:36;;;;;;;;;3.00;3.00;;;;;;;;2;261077684;261077684;-86
2022/02/08 01:17:56;;;;;;;;;4.00;4.00;;;;;;;;2;261077544;261077544;-86
2022/02/08 01:27:07;;;;;;;;;7.00;3.00;;;;;;;;2;261074661;261074661;-86
2022/02/08 01:35:31;;;;;;;;;5.50;5.50;;;;;;;;2;261074526;261074526;-86
2022/02/08 01:44:40;;;;;;;;;9.50;6.00;;;;;;;;2;261076790;261076790;-86
2022/02/08 01:52:55;;;;;;;;;8.50;3.00;;;;;;;;2;261074923;261074923;-86
2022/02/08 02:01:56;;;;;;;;;5.00;5.00;;;;;;;;2;261075766;261075766;-86
2022/02/08 02:10:11;;;;;;;;;6.50;6.50;;;;;;;;2;261076733;261076733;-86
2022/02/08 02:19:12;;;;;;;;;7.00;7.00;;;;;;;;2;261076391;261076391;-86
2022/02/08 02:27:27;;;;;;;;;6.00;6.00;;;;;;;;2;261073970;261073970;-86
2022/02/08 02:36:28;;;;;;;;;8.50;4.50;;;;;;;;2;261076953;261076953;-86
2022/02/08 02:44:43;;;;;;;;;7.00;7.00;;;;;;;;2;261078456;261078456;-86
2022/02/08 02:53:44;;;;;;;;;10.00;5.50;;;;;;;;2;261078263;261078263;-86
2022/02/08 03:02:26;;;;;;;;;11.50;3.00;;;;;;;;2;261077516;261077516;-86
2022/02/08 03:20:00;;;;;;;;;8.00;8.00;;;;;;;;2;261074937;261074937;-86
2022/02/08 03:29:00;;;;;;;;;17.00;6.00;;;;;;;;2;261077762;261077762;-86
2022/02/08 03:37:16;;;;;;;;;15.50;7.00;;;;;;;;2;261077940;261077940;-85
2022/02/08 03:46:21;;;;;;;;;15.00;10.50;;;;;;;;2;261076099;261076099;-86
2022/02/08 03:54:44;;;;;;;;;5.50;5.50;;;;;;;;2;261076087;261076087;-86
2022/02/08 04:04:03;;;;;;;;;6.50;2.50;;;;;;;;2;261078279;261078279;-86
2022/02/08 04:12:26;;;;;;;;;6.00;3.00;;;;;;;;2;261076282;261076282;-85
2022/02/08 04:47:58;;;;;;;;;3.50;3.50;;;;;;;;2;261076233;261076233;-85
2022/02/08 04:57:12;;;;;;;;;1.00;1.00;;;;;;;;2;261078381;261078381;-85
2022/02/08 05:50:41;;;;;;;;;3.00;3.00;;;;;;;;2;261075831;261075831;-85
2022/02/08 05:58:56;;;;;;;;;4.00;4.00;;;;;;;;2;261075612;261075612;-87
2022/02/08 06:07:57;;;;;;;;;2.00;2.00;;;;;;;;2;261076804;261076804;-85
2022/02/08 06:16:17;;;;;;;;;4.00;4.00;;;;;;;;2;261081103;261081103;-86
2022/02/08 06:25:18;;;;;;;;;10.00;6.50;;;;;;;;2;261078065;261078065;-86
2022/02/08 06:33:47;;;;;;;;;;;;;;;;;;;;;
2022/02/08 06:51:45;;;;;;;;;4.00;4.00;;;;;;;;2;261078667;261078667;-88
2022/02/08 07:00:48;;;;;;;;;14.00;2.00;;;;;;;;2;261076136;261076136;-87
2022/02/08 07:09:04;;;;;;;;;3.00;1.50;;;;;;;;2;261074489;261074489;-85
2022/02/08 07:18:04;;;;;;;;;0.50;0.50;;;;;;;;2;261077712;261077712;-85
2022/02/08 07:26:21;;;;;;;;;3.00;3.00;;;;;;;;2;261072020;261072020;-86
2022/02/08 07:43:48;;;;;;;;;5.00;5.00;;;;;;;;2;261069106;261069106;-85
2022/02/08 07:52:53;;;;;;;;;2.50;2.50;;;;;;;;2;261060449;261060449;-88
2022/02/08 08:01:08;;;;;;;;;6.00;6.00;;;;;;;;2;261061964;261061964;-88
2022/02/08 08:10:11;;;;;;;;;3.00;3.00;;;;;;;;2;261075440;261075440;-88
2022/02/08 08:27:33;;;;;;;;;2.00;2.00;;;;;;;;2;261075960;261075960;-88
2022/02/08 08:35:48;;;;;;;;;7.00;7.00;;;;;;;;2;261076317;261076317;-88
2022/02/08 08:45:09;;;;;;;;;4.50;4.50;;;;;;;;2;261074577;261074577;-87
2022/02/08 08:53:25;;;;;;;;;6.00;4.50;;;;;;;;2;261072300;261072300;-87
2022/02/08 09:02:26;;;;;;;;;5.00;5.00;;;;;;;;2;261075714;261075714;-88
2022/02/08 09:10:55;;;;;;;;;16.00;5.00;;;;;;;;2;261078327;261078327;-87
2022/02/08 09:28:23;;;;;;;;;6.00;6.00;;;;;;;;2;261075419;261075419;-88
2022/02/08 09:37:23;;;;;;;;;10.00;7.00;;;;;;;;2;261076065;261076065;-88
2022/02/08 09:45:46;;;;;;;;;16.00;8.00;;;;;;;;2;261076099;261076099;-87
2022/02/08 09:54:47;;;;;;;;;5.50;5.50;;;;;;;;2;261077029;261077029;-88
2022/02/08 10:03:12;;;;;;;;;12.00;12.00;;;;;;;;2;261076478;261076478;-88
2022/02/08 10:12:17;;;;;;;;;7.00;7.00;;;;;;;;2;261074931;261074931;-88
2022/02/08 10:29:56;;;;;;;;;6.00;6.00;;;;;;;;2;261073022;261073022;-88
2022/02/08 10:38:12;;;;;;;;;7.50;7.50;;;;;;;;2;261077164;261077164;-87
2022/02/08 10:47:12;;;;;;;;;13.00;10.50;;;;;;;;2;261076718;261076718;-88
2022/02/08 11:04:49;;;;;;;;;7.50;7.50;;;;;;;;2;261070964;261070964;-88
2022/02/08 11:13:27;;;;;;;;;9.00;9.00;;;;;;;;2;261075728;261075728;-88
2022/02/08 11:22:44;;;;;;;;;16.50;4.50;;;;;;;;2;261076708;261076708;-88
2022/02/08 11:31:09;;;;;;;;;3.50;3.50;;;;;;;;2;261076136;261076136;-90
2022/02/08 11:58:25;;;;;;;;;4.00;4.00;;;;;;;;2;261076523;261076523;-84
2022/02/08 15:13:50;;;;;;;;;5.00;5.00;;;;;;;;2;261075004;261075004;-87
2022/02/08 15:25:21;;;;;;;;;6.00;6.00;;;;;;;;2;257103739;257103739;-86
2022/02/08 15:34:21;;;;;;;;;3.50;3.50;;;;;;;;2;261076222;261076222;-87
2022/02/08 15:42:40;;;;;;;;;8.00;8.00;;;;;;;;2;261076154;261076154;-86
2022/02/08 15:51:45;;;;;;;;;4.00;4.00;;;;;;;;2;261076798;261076798;-86
2022/02/08 16:09:14;;;;;;;;;5.50;5.50;;;;;;;;2;261064459;261064459;-82
2022/02/08 16:17:38;;;;;;;;;9.50;9.50;;;;;;;;2;260260534;260260534;-83
2022/02/08 17:02:17;;;;;;;;;3.50;3.50;;;;;;;;2;261077323;261077323;-85
2022/02/08 17:10:37;;;;;;;;;12.00;12.00;;;;;;;;2;261078384;261078384;-85
2022/02/08 17:46:23;;;;;;;;;6.00;6.00;;;;;;;;2;261079072;261079072;-85
2022/02/08 17:56:05;;;;;;;;;;;;;;;;;;;;;
2022/02/08 18:04:12;;;;;;;;;5.50;5.50;;;;;;;;2;261075053;261075053;-85
2022/02/08 18:13:15;;;;;;;;;7.00;5.50;;;;;;;;2;261079122;261079122;-83
2022/02/08 18:21:36;;;;;;;;;8.00;8.00;;;;;;;;2;261073529;261073529;-83
2022/02/08 18:58:04;;;;;;;;;8.50;8.50;;;;;;;;2;261076120;261076120;-88
2022/02/08 19:24:26;;;;;;;;;17.00;8.50;;;;;;;;2;261076481;261076481;-86
2022/02/08 19:32:42;;;;;;;;;13.00;13.00;;;;;;;;2;261077855;261077855;-86
2022/02/08 19:41:43;;;;;;;;;9.00;9.00;;;;;;;;2;261073696;261073696;-87
2022/02/08 19:49:59;;;;;;;;;19.00;10.50;;;;;;;;2;261078243;261078243;-88
2022/02/08 19:59:00;;;;;;;;;16.50;16.50;;;;;;;;2;261078003;261078003;-86
2022/02/08 20:07:16;;;;;;;;;12.00;12.00;;;;;;;;2;261076518;261076518;-89
2022/02/08 20:16:20;;;;;;;;;17.00;12.00;;;;;;;;2;261073943;261073943;-87
2022/02/08 20:24:35;;;;;;;;;11.50;11.50;;;;;;;;2;261075532;261075532;-86
2022/02/08 20:33:36;;;;;;;;;6.00;6.00;;;;;;;;2;261078609;261078609;-82
2022/02/08 20:41:52;;;;;;;;;10.50;10.50;;;;;;;;2;261074173;261074173;-86
2022/02/08 20:50:58;;;;;;;;;7.50;7.50;;;;;;;;2;261077182;261077182;-85
2022/02/08 20:59:15;;;;;;;;;19.50;15.50;;;;;;;;2;261075279;261075279;-85
2022/02/08 21:08:16;;;;;;;;;24.00;15.50;;;;;;;;2;261076392;261076392;-86
2022/02/08 21:16:41;;;;;;;;;35.50;12.00;;;;;;;;2;261075701;261075701;-85
2022/02/08 21:25:48;;;;;;;;;22.50;14.50;;;;;;;;2;261076834;261076834;-83
2022/02/08 21:51:54;;;;;;;;;17.50;17.50;;;;;;;;2;261074836;261074836;-85
2022/02/08 22:00:56;;;;;;;;;25.00;25.00;;;;;;;;2;261076013;261076013;-87
2022/02/08 22:09:16;;;;;;;;;25.50;25.50;;;;;;;;2;261072256;261072256;-85
2022/02/08 22:35:53;;;;;;;;;32.00;20.50;;;;;;;;2;261076920;261076920;-86
2022/02/08 22:44:19;;;;;;;;;24.50;24.50;;;;;;;;2;261076409;261076409;-85
2022/02/08 22:53:19;;;;;;;;;33.00;31.50;;;;;;;;2;261073862;261073862;-86
2022/02/08 23:01:35;;;;;;;;;38.50;21.00;;;;;;;;2;261067076;261067076;-86
2022/02/08 23:10:47;;;;;;;;;28.00;19.00;;;;;;;;2;261068182;261068182;-86
2022/02/08 23:37:00;;;;;;;;;23.50;18.00;;;;;;;;2;261075405;261075405;-87
2022/02/08 23:46:01;;;;;;;;;22.00;22.00;;;;;;;;2;261075875;261075875;-86
2022/02/08 23:54:23;;;;;;;;;33.00;28.00;;;;;;;;2;261079327;261079327;-88
